sensor_id;sensor_type;location;lat;lon;timestamp;temperature;humidity
3566;DHT22;1797;51.844;7.684;2022-09-23T00:11:25;7.40;99.90
3566;DHT22;1797;51.844;7.684;2022-09-23T00:13:57;7.40;99.90
3566;DHT22;1797;51.844;7.684;2022-09-23T00:16:26;7.40;99.90
3566;DHT22;1797;51.844;7.684;2022-09-23T00:58:33;7.10;99.90
3566;DHT22;1797;51.844;7.684;2022-09-23T02:27:29;6.90;99.90
3566;DHT22;1797;51.844;7.684;2022-09-23T02:30:09;7.00;99.90
3566;DHT22;1797;51.844;7.684;2022-09-23T02:32:48;7.00;99.90
3566;DHT22;1797;51.844;7.684;2022-09-23T02:45:59;6.90;99.90
3566;DHT22;1797;51.844;7.684;2022-09-23T03:06:05;6.80;99.90
3566;DHT22;1797;51.844;7.684;2022-09-23T04:11:29;6.60;99.90
3566;DHT22;1797;51.844;7.684;2022-09-23T04:13:55;6.70;99.90
3566;DHT22;1797;51.844;7.684;2022-09-23T04:16:21;6.60;99.90
3566;DHT22;1797;51.844;7.684;2022-09-23T04:18:47;6.50;99.90
3566;DHT22;1797;51.844;7.684;2022-09-23T04:28:32;6.30;99.90
3566;DHT22;1797;51.844;7.684;2022-09-23T04:31:01;6.30;99.90
3566;DHT22;1797;51.844;7.684;2022-09-23T04:33:27;6.30;99.90
3566;DHT22;1797;51.844;7.684;2022-09-23T04:35:55;6.40;99.90
3566;DHT22;1797;51.844;7.684;2022-09-23T04:38:21;6.20;99.90
3566;DHT22;1797;51.844;7.684;2022-09-23T04:43:14;6.20;99.90
3566;DHT22;1797;51.844;7.684;2022-09-23T04:45:43;6.20;99.90
3566;DHT22;1797;51.844;7.684;2022-09-23T04:53:03;6.00;99.90
3566;DHT22;1797;51.844;7.684;2022-09-23T04:55:29;6.00;99.90
3566;DHT22;1797;51.844;7.684;2022-09-23T04:57:55;6.00;99.90
3566;DHT22;1797;51.844;7.684;2022-09-23T05:00:21;5.90;99.90
3566;DHT22;1797;51.844;7.684;2022-09-23T05:02:51;5.90;99.90
3566;DHT22;1797;51.844;7.684;2022-09-23T05:05:17;6.00;99.90
3566;DHT22;1797;51.844;7.684;2022-09-23T05:07:49;6.10;99.90
3566;DHT22;1797;51.844;7.684;2022-09-23T05:10:15;6.10;99.90
3566;DHT22;1797;51.844;7.684;2022-09-23T05:15:07;6.00;99.90
3566;DHT22;1797;51.844;7.684;2022-09-23T05:17:33;6.00;99.90
3566;DHT22;1797;51.844;7.684;2022-09-23T05:19:58;5.90;99.90
3566;DHT22;1797;51.844;7.684;2022-09-23T05:22:25;6.00;99.90
3566;DHT22;1797;51.844;7.684;2022-09-23T05:24:53;6.10;99.90
3566;DHT22;1797;51.844;7.684;2022-09-23T05:27:19;6.10;99.90
3566;DHT22;1797;51.844;7.684;2022-09-23T05:29:45;6.00;99.90
3566;DHT22;1797;51.844;7.684;2022-09-23T05:32:12;6.00;99.90
3566;DHT22;1797;51.844;7.684;2022-09-23T05:34:37;5.90;99.90
3566;DHT22;1797;51.844;7.684;2022-09-23T05:39:30;6.00;99.90
3566;DHT22;1797;51.844;7.684;2022-09-23T05:44:24;6.10;99.90
3566;DHT22;1797;51.844;7.684;2022-09-23T05:46:50;6.20;99.90
3566;DHT22;1797;51.844;7.684;2022-09-23T05:49:15;6.10;99.90
3566;DHT22;1797;51.844;7.684;2022-09-23T05:51:41;6.10;99.90
3566;DHT22;1797;51.844;7.684;2022-09-23T05:54:06;6.10;99.90
3566;DHT22;1797;51.844;7.684;2022-09-23T05:56:33;6.10;99.90
3566;DHT22;1797;51.844;7.684;2022-09-23T06:01:28;6.20;99.90
3566;DHT22;1797;51.844;7.684;2022-09-23T06:03:57;6.30;99.90
3566;DHT22;1797;51.844;7.684;2022-09-23T06:09:00;6.10;99.90
3566;DHT22;1797;51.844;7.684;2022-09-23T06:11:29;6.30;99.90
3566;DHT22;1797;51.844;7.684;2022-09-23T06:13:56;6.30;99.90
3566;DHT22;1797;51.844;7.684;2022-09-23T06:16:25;6.30;99.90
3566;DHT22;1797;51.844;7.684;2022-09-23T06:23:44;6.50;99.90
3566;DHT22;1797;51.844;7.684;2022-09-23T06:33:36;6.60;99.90
3566;DHT22;1797;51.844;7.684;2022-09-23T06:43:26;6.80;99.90
3566;DHT22;1797;51.844;7.684;2022-09-23T07:32:21;8.60;99.90
3566;DHT22;1797;51.844;7.684;2022-09-23T07:34:47;8.80;99.90
3566;DHT22;1797;51.844;7.684;2022-09-23T07:39:39;9.10;99.90
3566;DHT22;1797;51.844;7.684;2022-09-23T07:42:06;9.20;99.90
3566;DHT22;1797;51.844;7.684;2022-09-23T07:44:32;9.40;99.90
3566;DHT22;1797;51.844;7.684;2022-09-23T08:06:41;10.90;1.00
3566;DHT22;1797;51.844;7.684;2022-09-23T08:09:08;11.00;1.00
3566;DHT22;1797;51.844;7.684;2022-09-23T08:11:33;11.30;99.90
3566;DHT22;1797;51.844;7.684;2022-09-23T08:31:10;13.60;99.90
3566;DHT22;1797;51.844;7.684;2022-09-23T08:33:37;13.90;1.00
3566;DHT22;1797;51.844;7.684;2022-09-23T08:36:04;14.20;1.00
3566;DHT22;1797;51.844;7.684;2022-09-23T08:38:30;14.50;1.00
3566;DHT22;1797;51.844;7.684;2022-09-23T08:43:32;14.80;1.00
3566;DHT22;1797;51.844;7.684;2022-09-23T08:46:03;14.80;99.90
3566;DHT22;1797;51.844;7.684;2022-09-23T08:48:41;14.90;99.90
3566;DHT22;1797;51.844;7.684;2022-09-23T08:51:22;15.10;99.90
3566;DHT22;1797;51.844;7.684;2022-09-23T09:19:41;15.60;1.00
3566;DHT22;1797;51.844;7.684;2022-09-23T09:22:18;15.70;15.10
3566;DHT22;1797;51.844;7.684;2022-09-23T09:24:46;15.70;1.00
3566;DHT22;1797;51.844;7.684;2022-09-23T09:27:13;15.70;1.00
3566;DHT22;1797;51.844;7.684;2022-09-23T09:29:45;15.70;1.00
3566;DHT22;1797;51.844;7.684;2022-09-23T09:32:23;15.80;1.00
3566;DHT22;1797;51.844;7.684;2022-09-23T09:34:59;15.70;1.00
3566;DHT22;1797;51.844;7.684;2022-09-23T09:37:33;15.80;1.00
3566;DHT22;1797;51.844;7.684;2022-09-23T09:40:01;15.90;1.00
3566;DHT22;1797;51.844;7.684;2022-09-23T09:42:38;16.10;1.00
3566;DHT22;1797;51.844;7.684;2022-09-23T09:45:27;16.30;1.00
3566;DHT22;1797;51.844;7.684;2022-09-23T09:48:11;16.50;1.00
3566;DHT22;1797;51.844;7.684;2022-09-23T09:50:49;16.60;1.00
3566;DHT22;1797;51.844;7.684;2022-09-23T09:55:44;16.90;1.00
3566;DHT22;1797;51.844;7.684;2022-09-23T09:58:13;16.90;1.00
3566;DHT22;1797;51.844;7.684;2022-09-23T10:00:44;17.00;1.00
3566;DHT22;1797;51.844;7.684;2022-09-23T10:08:30;17.40;1.00
3566;DHT22;1797;51.844;7.684;2022-09-23T10:11:14;17.60;1.00
3566;DHT22;1797;51.844;7.684;2022-09-23T10:13:42;17.70;1.00
3566;DHT22;1797;51.844;7.684;2022-09-23T10:16:32;17.70;1.00
3566;DHT22;1797;51.844;7.684;2022-09-23T10:18:59;17.80;1.00
3566;DHT22;1797;51.844;7.684;2022-09-23T10:21:35;17.90;1.00
